sensor_id;sensor_type;location;lat;lon;timestamp;pressure;altitude;pressure_sealevel;temperature;humidity
5812;BME280;2932;52.400;9.558;2023-02-15T00:00:06;102345.50;;;11.11;61.41
5812;BME280;2932;52.400;9.558;2023-02-15T00:02:33;102339.53;;;10.90;61.65
5812;BME280;2932;52.400;9.558;2023-02-15T00:04:58;102342.50;;;10.94;61.45
5812;BME280;2932;52.400;9.558;2023-02-15T00:07:23;102337.06;;;10.89;61.11
5812;BME280;2932;52.400;9.558;2023-02-15T00:09:49;102335.44;;;10.74;61.59
5812;BME280;2932;52.400;9.558;2023-02-15T00:12:15;102329.38;;;10.72;61.22
5812;BME280;2932;52.400;9.558;2023-02-15T00:14:41;102330.72;;;10.75;61.04
5812;BME280;2932;52.400;9.558;2023-02-15T00:17:07;102320.63;;;10.65;61.22
5812;BME280;2932;52.400;9.558;2023-02-15T00:19:32;102317.34;;;10.63;61.79
5812;BME280;2932;52.400;9.558;2023-02-15T00:21:58;102319.16;;;10.54;62.00
5812;BME280;2932;52.400;9.558;2023-02-15T00:24:24;102311.56;;;10.46;62.23
5812;BME280;2932;52.400;9.558;2023-02-15T00:26:49;102304.91;;;10.33;63.00
5812;BME280;2932;52.400;9.558;2023-02-15T00:29:15;102306.06;;;10.59;62.69
5812;BME280;2932;52.400;9.558;2023-02-15T00:31:41;102310.69;;;10.64;62.59
5812;BME280;2932;52.400;9.558;2023-02-15T00:34:15;102305.81;;;10.42;62.81
5812;BME280;2932;52.400;9.558;2023-02-15T00:36:42;102308.84;;;10.59;63.01
5812;BME280;2932;52.400;9.558;2023-02-15T00:39:07;102308.44;;;10.80;62.10
5812;BME280;2932;52.400;9.558;2023-02-15T00:41:33;102311.13;;;10.71;61.82
5812;BME280;2932;52.400;9.558;2023-02-15T00:43:59;102314.69;;;10.58;61.63
5812;BME280;2932;52.400;9.558;2023-02-15T00:46:24;102309.91;;;10.45;61.54
5812;BME280;2932;52.400;9.558;2023-02-15T00:48:50;102306.31;;;10.30;61.56
5812;BME280;2932;52.400;9.558;2023-02-15T00:51:16;102317.31;;;10.35;61.19
5812;BME280;2932;52.400;9.558;2023-02-15T00:53:42;102308.19;;;10.16;61.28
5812;BME280;2932;52.400;9.558;2023-02-15T00:56:11;102307.47;;;9.92;61.25
5812;BME280;2932;52.400;9.558;2023-02-15T00:58:37;102307.47;;;9.92;61.52
5812;BME280;2932;52.400;9.558;2023-02-15T01:01:07;102311.81;;;9.98;61.39
5812;BME280;2932;52.400;9.558;2023-02-15T01:03:34;102305.16;;;9.99;61.31
5812;BME280;2932;52.400;9.558;2023-02-15T01:06:00;102301.97;;;10.06;61.00
5812;BME280;2932;52.400;9.558;2023-02-15T01:08:25;102304.16;;;10.09;61.15
5812;BME280;2932;52.400;9.558;2023-02-15T01:10:50;102296.22;;;10.02;61.14
5812;BME280;2932;52.400;9.558;2023-02-15T01:13:16;102294.41;;;9.97;61.26
5812;BME280;2932;52.400;9.558;2023-02-15T01:15:42;102293.72;;;9.87;61.44
5812;BME280;2932;52.400;9.558;2023-02-15T01:18:09;102286.09;;;9.79;61.25
5812;BME280;2932;52.400;9.558;2023-02-15T01:20:36;102291.03;;;9.82;61.32
5812;BME280;2932;52.400;9.558;2023-02-15T01:23:04;102293.66;;;9.92;60.94
5812;BME280;2932;52.400;9.558;2023-02-15T01:25:30;102293.22;;;9.85;60.44
5812;BME280;2932;52.400;9.558;2023-02-15T01:27:55;102289.31;;;9.67;60.57
5812;BME280;2932;52.400;9.558;2023-02-15T01:30:21;102280.59;;;9.79;60.30
5812;BME280;2932;52.400;9.558;2023-02-15T01:32:46;102283.94;;;9.76;60.45
5812;BME280;2932;52.400;9.558;2023-02-15T01:35:11;102272.38;;;9.74;60.30
5812;BME280;2932;52.400;9.558;2023-02-15T01:37:37;102272.97;;;9.70;60.61
5812;BME280;2932;52.400;9.558;2023-02-15T01:40:04;102279.16;;;9.62;61.03
5812;BME280;2932;52.400;9.558;2023-02-15T01:42:30;102280.66;;;9.74;60.47
5812;BME280;2932;52.400;9.558;2023-02-15T01:45:04;102272.75;;;9.67;60.43
5812;BME280;2932;52.400;9.558;2023-02-15T01:47:43;102270.06;;;9.62;60.40
5812;BME280;2932;52.400;9.558;2023-02-15T01:53:27;102273.44;;;9.59;60.54
5812;BME280;2932;52.400;9.558;2023-02-15T01:55:32;102267.53;;;9.47;60.62
5812;BME280;2932;52.400;9.558;2023-02-15T01:57:58;102259.31;;;9.42;60.82
5812;BME280;2932;52.400;9.558;2023-02-15T02:00:24;102262.91;;;9.42;60.90
5812;BME280;2932;52.400;9.558;2023-02-15T02:02:53;102252.81;;;9.32;60.95
5812;BME280;2932;52.400;9.558;2023-02-15T02:05:20;102250.03;;;9.32;61.04
5812;BME280;2932;52.400;9.558;2023-02-15T02:07:46;102254.69;;;9.37;60.98
5812;BME280;2932;52.400;9.558;2023-02-15T02:10:18;102252.38;;;9.44;60.72
5812;BME280;2932;52.400;9.558;2023-02-15T02:12:46;102248.94;;;9.33;60.68
5812;BME280;2932;52.400;9.558;2023-02-15T02:15:13;102242.81;;;9.18;60.62
5812;BME280;2932;52.400;9.558;2023-02-15T02:17:57;102246.06;;;9.20;60.67
5812;BME280;2932;52.400;9.558;2023-02-15T02:21:10;102238.47;;;9.12;60.90
5812;BME280;2932;52.400;9.558;2023-02-15T02:26:47;102235.78;;;9.25;60.40
5812;BME280;2932;52.400;9.558;2023-02-15T02:32:05;102222.44;;;9.14;60.47
5812;BME280;2932;52.400;9.558;2023-02-15T02:35:30;102221.22;;;9.01;60.85
5812;BME280;2932;52.400;9.558;2023-02-15T02:40:48;102221.31;;;8.72;60.65
5812;BME280;2932;52.400;9.558;2023-02-15T02:43:44;102213.50;;;8.55;60.70
5812;BME280;2932;52.400;9.558;2023-02-15T02:46:20;102228.47;;;8.20;61.63
5812;BME280;2932;52.400;9.558;2023-02-15T02:48:49;102220.91;;;8.60;61.64
5812;BME280;2932;52.400;9.558;2023-02-15T02:51:15;102226.41;;;8.60;61.05
5812;BME280;2932;52.400;9.558;2023-02-15T02:53:48;102223.84;;;8.68;60.90
5812;BME280;2932;52.400;9.558;2023-02-15T02:56:27;102216.66;;;8.15;61.59
5812;BME280;2932;52.400;9.558;2023-02-15T02:59:15;102223.38;;;8.38;61.81
5812;BME280;2932;52.400;9.558;2023-02-15T03:01:45;102218.97;;;8.31;62.47
5812;BME280;2932;52.400;9.558;2023-02-15T03:04:17;102216.66;;;8.44;62.31
5812;BME280;2932;52.400;9.558;2023-02-15T03:09:27;102209.69;;;8.51;62.51
5812;BME280;2932;52.400;9.558;2023-02-15T03:12:19;102213.91;;;8.67;62.16
5812;BME280;2932;52.400;9.558;2023-02-15T03:14:49;102213.03;;;8.72;62.07
5812;BME280;2932;52.400;9.558;2023-02-15T03:17:18;102206.28;;;8.59;61.54
5812;BME280;2932;52.400;9.558;2023-02-15T03:19:45;102200.41;;;8.66;61.50
5812;BME280;2932;52.400;9.558;2023-02-15T03:22:18;102199.81;;;8.69;61.46
5812;BME280;2932;52.400;9.558;2023-02-15T03:24:56;102195.50;;;8.82;61.14
5812;BME280;2932;52.400;9.558;2023-02-15T03:27:27;102193.03;;;8.80;60.96
5812;BME280;2932;52.400;9.558;2023-02-15T03:29:58;102195.75;;;8.85;60.52
5812;BME280;2932;52.400;9.558;2023-02-15T03:32:25;102186.16;;;8.59;60.82
5812;BME280;2932;52.400;9.558;2023-02-15T03:34:52;102190.88;;;8.29;61.57
5812;BME280;2932;52.400;9.558;2023-02-15T03:40:37;102180.41;;;8.55;61.81
5812;BME280;2932;52.400;9.558;2023-02-15T03:43:30;102183.50;;;8.49;61.40
5812;BME280;2932;52.400;9.558;2023-02-15T03:46:05;102182.00;;;8.38;61.26
5812;BME280;2932;52.400;9.558;2023-02-15T03:48:37;102183.47;;;8.25;61.85
5812;BME280;2932;52.400;9.558;2023-02-15T03:51:08;102175.13;;;8.06;62.69
5812;BME280;2932;52.400;9.558;2023-02-15T03:53:54;102180.81;;;8.15;62.60
5812;BME280;2932;52.400;9.558;2023-02-15T03:56:20;102186.28;;;8.20;62.48
5812;BME280;2932;52.400;9.558;2023-02-15T03:58:46;102190.88;;;8.29;62.55
5812;BME280;2932;52.400;9.558;2023-02-15T04:01:37;102195.38;;;8.20;62.32
5812;BME280;2932;52.400;9.558;2023-02-15T04:04:25;102191.69;;;8.35;61.84
5812;BME280;2932;52.400;9.558;2023-02-15T04:06:51;102193.34;;;8.31;61.42
5812;BME280;2932;52.400;9.558;2023-02-15T04:09:17;102190.06;;;8.29;61.49
5812;BME280;2932;52.400;9.558;2023-02-15T04:12:01;102189.47;;;8.32;61.10
5812;BME280;2932;52.400;9.558;2023-02-15T04:14:26;102180.63;;;8.06;61.57
5812;BME280;2932;52.400;9.558;2023-02-15T04:17:09;102179.19;;;8.14;61.72
5812;BME280;2932;52.400;9.558;2023-02-15T04:19:35;102178.50;;;8.27;60.90
5812;BME280;2932;52.400;9.558;2023-02-15T04:22:20;102174.91;;;8.26;60.66
5812;BME280;2932;52.400;9.558;2023-02-15T04:25:04;102172.34;;;8.06;61.21
5812;BME280;2932;52.400;9.558;2023-02-15T04:27:42;102182.13;;;8.22;60.62
5812;BME280;2932;52.400;9.558;2023-02-15T04:30:09;102176.94;;;8.16;60.44
5812;BME280;2932;52.400;9.558;2023-02-15T04:32:35;102179.13;;;8.19;60.22
5812;BME280;2932;52.400;9.558;2023-02-15T04:35:02;102172.44;;;8.25;60.17
5812;BME280;2932;52.400;9.558;2023-02-15T04:37:27;102162.28;;;8.20;60.27
5812;BME280;2932;52.400;9.558;2023-02-15T04:39:52;102158.75;;;7.91;60.94
5812;BME280;2932;52.400;9.558;2023-02-15T04:42:18;102153.78;;;7.93;60.77
5812;BME280;2932;52.400;9.558;2023-02-15T04:44:43;102164.03;;;8.11;60.62
5812;BME280;2932;52.400;9.558;2023-02-15T04:47:08;102163.94;;;8.21;60.50
5812;BME280;2932;52.400;9.558;2023-02-15T04:49:34;102160.53;;;8.29;59.84
5812;BME280;2932;52.400;9.558;2023-02-15T04:51:59;102152.66;;;8.18;59.41
5812;BME280;2932;52.400;9.558;2023-02-15T04:54:25;102144.78;;;8.06;60.22
5812;BME280;2932;52.400;9.558;2023-02-15T04:56:50;102143.03;;;7.91;60.46
5812;BME280;2932;52.400;9.558;2023-02-15T04:59:15;102150.53;;;7.86;60.68
5812;BME280;2932;52.400;9.558;2023-02-15T05:01:41;102149.47;;;7.82;60.88
5812;BME280;2932;52.400;9.558;2023-02-15T05:04:06;102151.91;;;7.54;61.61
5812;BME280;2932;52.400;9.558;2023-02-15T05:06:32;102156.59;;;7.54;61.60
5812;BME280;2932;52.400;9.558;2023-02-15T05:08:57;102145.69;;;7.39;61.62
5812;BME280;2932;52.400;9.558;2023-02-15T05:11:24;102147.47;;;7.58;61.54
5812;BME280;2932;52.400;9.558;2023-02-15T05:13:50;102141.31;;;7.66;61.16
5812;BME280;2932;52.400;9.558;2023-02-15T05:16:15;102142.69;;;7.69;61.24
5812;BME280;2932;52.400;9.558;2023-02-15T05:18:40;102143.84;;;7.63;61.36
5812;BME280;2932;52.400;9.558;2023-02-15T05:21:05;102148.47;;;7.67;61.71
5812;BME280;2932;52.400;9.558;2023-02-15T05:23:31;102145.44;;;7.69;61.34
5812;BME280;2932;52.400;9.558;2023-02-15T05:25:56;102138.19;;;7.49;61.85
5812;BME280;2932;52.400;9.558;2023-02-15T05:28:40;102133.88;;;7.38;62.24
5812;BME280;2932;52.400;9.558;2023-02-15T05:31:09;102127.53;;;7.38;62.11
5812;BME280;2932;52.400;9.558;2023-02-15T05:33:35;102125.53;;;7.48;62.13
5812;BME280;2932;52.400;9.558;2023-02-15T05:36:01;102117.91;;;7.35;62.62
5812;BME280;2932;52.400;9.558;2023-02-15T05:38:26;102119.59;;;7.31;62.98
5812;BME280;2932;52.400;9.558;2023-02-15T05:40:52;102121.13;;;7.47;62.74
5812;BME280;2932;52.400;9.558;2023-02-15T05:43:18;102115.91;;;7.46;62.25
5812;BME280;2932;52.400;9.558;2023-02-15T05:45:45;102116.88;;;7.26;62.87
5812;BME280;2932;52.400;9.558;2023-02-15T05:48:11;102105.84;;;7.31;62.85
5812;BME280;2932;52.400;9.558;2023-02-15T05:50:36;102110.91;;;7.19;63.29
5812;BME280;2932;52.400;9.558;2023-02-15T05:53:01;102110.00;;;6.89;63.85
5812;BME280;2932;52.400;9.558;2023-02-15T05:55:26;102106.69;;;6.87;64.25
5812;BME280;2932;52.400;9.558;2023-02-15T05:57:52;102116.50;;;7.03;64.00
5812;BME280;2932;52.400;9.558;2023-02-15T06:00:17;102118.00;;;6.81;64.50
5812;BME280;2932;52.400;9.558;2023-02-15T06:02:43;102125.53;;;6.65;64.67
5812;BME280;2932;52.400;9.558;2023-02-15T06:05:08;102119.66;;;6.27;65.61
5812;BME280;2932;52.400;9.558;2023-02-15T06:07:34;102120.53;;;6.18;65.20
5812;BME280;2932;52.400;9.558;2023-02-15T06:09:59;102121.22;;;6.49;65.10
5812;BME280;2932;52.400;9.558;2023-02-15T06:12:25;102123.06;;;6.63;64.57
5812;BME280;2932;52.400;9.558;2023-02-15T06:14:50;102117.53;;;6.74;64.64
5812;BME280;2932;52.400;9.558;2023-02-15T06:17:15;102124.75;;;7.03;63.71
5812;BME280;2932;52.400;9.558;2023-02-15T06:19:42;102119.34;;;6.88;64.17
5812;BME280;2932;52.400;9.558;2023-02-15T06:22:07;102119.06;;;6.90;64.28
5812;BME280;2932;52.400;9.558;2023-02-15T06:24:32;102133.53;;;7.11;63.64
5812;BME280;2932;52.400;9.558;2023-02-15T06:26:58;102125.09;;;6.92;64.01
5812;BME280;2932;52.400;9.558;2023-02-15T06:29:23;102125.44;;;6.80;63.52
5812;BME280;2932;52.400;9.558;2023-02-15T06:31:49;102130.00;;;7.05;63.18
5812;BME280;2932;52.400;9.558;2023-02-15T06:34:14;102134.34;;;7.11;63.10
5812;BME280;2932;52.400;9.558;2023-02-15T06:36:39;102126.34;;;7.15;62.94
5812;BME280;2932;52.400;9.558;2023-02-15T06:39:05;102120.44;;;6.92;63.25
5812;BME280;2932;52.400;9.558;2023-02-15T06:41:31;102119.84;;;7.00;63.01
5812;BME280;2932;52.400;9.558;2023-02-15T06:43:56;102112.41;;;7.01;62.84
5812;BME280;2932;52.400;9.558;2023-02-15T06:46:21;102124.41;;;7.15;62.42
5812;BME280;2932;52.400;9.558;2023-02-15T06:48:48;102119.44;;;7.17;62.28
5812;BME280;2932;52.400;9.558;2023-02-15T06:51:13;102118.00;;;7.25;61.82
5812;BME280;2932;52.400;9.558;2023-02-15T06:53:38;102112.63;;;7.10;62.22
5812;BME280;2932;52.400;9.558;2023-02-15T06:56:07;102119.16;;;7.19;61.65
5812;BME280;2932;52.400;9.558;2023-02-15T06:58:34;102118.84;;;7.20;62.11
5812;BME280;2932;52.400;9.558;2023-02-15T07:01:00;102117.34;;;7.04;62.78
5812;BME280;2932;52.400;9.558;2023-02-15T07:03:25;102111.94;;;7.23;62.00
5812;BME280;2932;52.400;9.558;2023-02-15T07:05:57;102117.47;;;7.23;61.45
5812;BME280;2932;52.400;9.558;2023-02-15T07:08:24;102121.97;;;7.09;62.06
5812;BME280;2932;52.400;9.558;2023-02-15T07:10:50;102124.34;;;6.81;62.64
5812;BME280;2932;52.400;9.558;2023-02-15T07:13:16;102131.38;;;7.02;62.64
5812;BME280;2932;52.400;9.558;2023-02-15T07:15:41;102134.22;;;7.26;62.02
5812;BME280;2932;52.400;9.558;2023-02-15T07:18:07;102124.00;;;7.32;61.88
5812;BME280;2932;52.400;9.558;2023-02-15T07:20:32;102130.34;;;7.61;61.62
5812;BME280;2932;52.400;9.558;2023-02-15T07:23:01;102126.69;;;7.71;61.49
5812;BME280;2932;52.400;9.558;2023-02-15T07:25:27;102123.91;;;8.00;61.18
5812;BME280;2932;52.400;9.558;2023-02-15T07:28:00;102122.34;;;8.42;60.36
5812;BME280;2932;52.400;9.558;2023-02-15T07:30:26;102114.19;;;8.55;59.90
5812;BME280;2932;52.400;9.558;2023-02-15T07:32:55;102110.44;;;8.46;60.09
5812;BME280;2932;52.400;9.558;2023-02-15T07:35:46;102119.88;;;8.64;59.70
5812;BME280;2932;52.400;9.558;2023-02-15T07:38:12;102123.59;;;8.30;59.94
5812;BME280;2932;52.400;9.558;2023-02-15T07:40:38;102118.94;;;8.50;60.31
5812;BME280;2932;52.400;9.558;2023-02-15T07:43:03;102124.16;;;8.75;59.98
5812;BME280;2932;52.400;9.558;2023-02-15T07:45:30;102121.41;;;8.51;60.20
5812;BME280;2932;52.400;9.558;2023-02-15T07:47:55;102115.59;;;8.53;60.60
5812;BME280;2932;52.400;9.558;2023-02-15T07:50:20;102121.34;;;8.56;60.82
5812;BME280;2932;52.400;9.558;2023-02-15T07:52:46;102123.06;;;8.52;60.63
5812;BME280;2932;52.400;9.558;2023-02-15T07:55:11;102118.34;;;8.53;60.99
5812;BME280;2932;52.400;9.558;2023-02-15T07:57:41;102113.44;;;8.26;61.55
5812;BME280;2932;52.400;9.558;2023-02-15T08:00:07;102110.72;;;8.21;62.56
5812;BME280;2932;52.400;9.558;2023-02-15T08:02:33;102098.06;;;8.44;62.91
5812;BME280;2932;52.400;9.558;2023-02-15T08:04:59;102104.44;;;8.63;61.64
5812;BME280;2932;52.400;9.558;2023-02-15T08:07:24;102103.19;;;8.74;62.13
5812;BME280;2932;52.400;9.558;2023-02-15T08:09:49;102100.41;;;8.55;62.68
5812;BME280;2932;52.400;9.558;2023-02-15T08:12:14;102084.47;;;8.71;62.47
5812;BME280;2932;52.400;9.558;2023-02-15T08:14:40;102085.66;;;8.65;62.63
5812;BME280;2932;52.400;9.558;2023-02-15T08:17:05;102084.94;;;8.78;62.88
5812;BME280;2932;52.400;9.558;2023-02-15T08:19:32;102080.19;;;8.97;62.83
5812;BME280;2932;52.400;9.558;2023-02-15T08:22:00;102077.53;;;9.25;62.33
5812;BME280;2932;52.400;9.558;2023-02-15T08:24:31;102071.03;;;9.34;62.34
5812;BME280;2932;52.400;9.558;2023-02-15T08:26:57;102074.59;;;9.67;61.42
5812;BME280;2932;52.400;9.558;2023-02-15T08:29:26;102069.72;;;9.92;61.23
5812;BME280;2932;52.400;9.558;2023-02-15T08:32:00;102073.09;;;10.16;60.51
5812;BME280;2932;52.400;9.558;2023-02-15T08:34:28;102075.03;;;10.16;60.37
5812;BME280;2932;52.400;9.558;2023-02-15T08:36:54;102069.88;;;10.64;60.16
5812;BME280;2932;52.400;9.558;2023-02-15T08:39:19;102071.75;;;10.91;60.11
5812;BME280;2932;52.400;9.558;2023-02-15T08:41:46;102070.53;;;11.19;58.66
5812;BME280;2932;52.400;9.558;2023-02-15T08:44:14;102060.63;;;11.49;58.22
5812;BME280;2932;52.400;9.558;2023-02-15T08:46:42;102048.22;;;11.78;57.25
5812;BME280;2932;52.400;9.558;2023-02-15T08:49:14;102047.63;;;11.58;57.72
5812;BME280;2932;52.400;9.558;2023-02-15T08:51:40;102049.09;;;11.64;57.55
5812;BME280;2932;52.400;9.558;2023-02-15T08:54:08;102053.94;;;11.81;57.21
5812;BME280;2932;52.400;9.558;2023-02-15T08:56:37;102047.31;;;11.91;56.63
5812;BME280;2932;52.400;9.558;2023-02-15T08:59:03;102041.16;;;12.11;56.88
5812;BME280;2932;52.400;9.558;2023-02-15T09:01:31;102041.47;;;12.01;56.59
5812;BME280;2932;52.400;9.558;2023-02-15T09:04:03;102052.31;;;12.20;56.81
5812;BME280;2932;52.400;9.558;2023-02-15T09:06:29;102045.38;;;12.00;56.89
5812;BME280;2932;52.400;9.558;2023-02-15T09:08:55;102053.38;;;12.01;57.67
5812;BME280;2932;52.400;9.558;2023-02-15T09:11:23;102056.00;;;12.07;57.73
5812;BME280;2932;52.400;9.558;2023-02-15T09:13:55;102058.41;;;11.91;57.69
5812;BME280;2932;52.400;9.558;2023-02-15T09:16:22;102051.19;;;12.29;57.46
5812;BME280;2932;52.400;9.558;2023-02-15T09:18:48;102062.34;;;12.64;57.54
5812;BME280;2932;52.400;9.558;2023-02-15T09:21:24;102044.56;;;12.99;57.03
5812;BME280;2932;52.400;9.558;2023-02-15T09:23:52;102048.13;;;13.26;56.47
5812;BME280;2932;52.400;9.558;2023-02-15T09:26:21;102044.22;;;13.27;55.86
5812;BME280;2932;52.400;9.558;2023-02-15T09:28:50;102053.78;;;13.64;55.54
5812;BME280;2932;52.400;9.558;2023-02-15T09:31:26;102050.25;;;13.93;55.08
5812;BME280;2932;52.400;9.558;2023-02-15T09:33:53;102046.88;;;13.79;54.10
5812;BME280;2932;52.400;9.558;2023-02-15T09:36:24;102040.31;;;13.83;53.45
5812;BME280;2932;52.400;9.558;2023-02-15T09:38:56;102035.03;;;13.52;54.33
5812;BME280;2932;52.400;9.558;2023-02-15T09:41:33;102034.94;;;13.69;54.68
5812;BME280;2932;52.400;9.558;2023-02-15T09:44:20;102039.06;;;14.01;54.72
5812;BME280;2932;52.400;9.558;2023-02-15T10:03:40;102044.03;;;14.76;53.37
5812;BME280;2932;52.400;9.558;2023-02-15T10:11:17;102033.63;;;14.85;52.16
5812;BME280;2932;52.400;9.558;2023-02-15T10:14:20;102041.69;;;15.19;52.46
5812;BME280;2932;52.400;9.558;2023-02-15T10:17:13;102030.69;;;15.35;51.70
5812;BME280;2932;52.400;9.558;2023-02-15T10:20:22;102016.69;;;15.11;52.13
5812;BME280;2932;52.400;9.558;2023-02-15T10:26:04;102023.34;;;15.63;52.09
5812;BME280;2932;52.400;9.558;2023-02-15T10:31:28;102019.75;;;15.99;50.71
5812;BME280;2932;52.400;9.558;2023-02-15T10:34:32;102022.69;;;15.91;50.94
5812;BME280;2932;52.400;9.558;2023-02-15T11:06:53;101998.00;;;17.53;48.82
5812;BME280;2932;52.400;9.558;2023-02-15T11:09:22;102004.44;;;17.85;48.51
5812;BME280;2932;52.400;9.558;2023-02-15T11:11:51;102000.06;;;18.04;48.70
5812;BME280;2932;52.400;9.558;2023-02-15T11:14:35;101989.81;;;17.32;48.71
5812;BME280;2932;52.400;9.558;2023-02-15T11:17:13;101994.63;;;17.63;50.22
5812;BME280;2932;52.400;9.558;2023-02-15T11:20:16;101993.78;;;17.75;49.13
5812;BME280;2932;52.400;9.558;2023-02-15T11:22:47;101989.75;;;18.23;48.47
5812;BME280;2932;52.400;9.558;2023-02-15T11:25:19;101987.00;;;18.81;47.82
5812;BME280;2932;52.400;9.558;2023-02-15T11:27:46;101988.56;;;18.24;48.48
5812;BME280;2932;52.400;9.558;2023-02-15T11:30:14;101984.91;;;18.75;46.71
5812;BME280;2932;52.400;9.558;2023-02-15T11:32:43;101987.63;;;18.71;45.82
5812;BME280;2932;52.400;9.558;2023-02-15T11:40:34;101972.16;;;20.41;42.07
5812;BME280;2932;52.400;9.558;2023-02-15T11:43:10;101970.94;;;20.68;41.82
5812;BME280;2932;52.400;9.558;2023-02-15T11:45:40;101961.97;;;22.21;39.81
5812;BME280;2932;52.400;9.558;2023-02-15T11:48:12;101957.16;;;23.16;38.53
5812;BME280;2932;52.400;9.558;2023-02-15T11:50:39;101952.38;;;23.87;37.81
5812;BME280;2932;52.400;9.558;2023-02-15T11:53:10;101948.13;;;24.70;36.83
5812;BME280;2932;52.400;9.558;2023-02-15T11:55:37;101948.22;;;25.25;36.11
5812;BME280;2932;52.400;9.558;2023-02-15T12:00:56;101947.56;;;26.45;35.16
5812;BME280;2932;52.400;9.558;2023-02-15T12:06:05;101948.47;;;27.03;34.06
5812;BME280;2932;52.400;9.558;2023-02-15T12:08:42;101947.38;;;27.74;33.38
5812;BME280;2932;52.400;9.558;2023-02-15T12:11:15;101940.19;;;28.52;32.82
5812;BME280;2932;52.400;9.558;2023-02-15T12:14:01;101945.81;;;28.75;32.72
5812;BME280;2932;52.400;9.558;2023-02-15T12:16:28;101950.25;;;28.96;32.45
5812;BME280;2932;52.400;9.558;2023-02-15T12:18:58;101952.81;;;30.08;31.88
5812;BME280;2932;52.400;9.558;2023-02-15T12:21:43;101949.34;;;31.00;30.84
5812;BME280;2932;52.400;9.558;2023-02-15T12:24:20;101947.06;;;31.20;30.40
5812;BME280;2932;52.400;9.558;2023-02-15T12:27:23;101945.97;;;30.34;30.76
5812;BME280;2932;52.400;9.558;2023-02-15T12:29:53;101945.94;;;31.17;30.84
5812;BME280;2932;52.400;9.558;2023-02-15T12:32:27;101948.78;;;31.05;30.11
5812;BME280;2932;52.400;9.558;2023-02-15T12:35:13;101947.88;;;31.46;29.98
5812;BME280;2932;52.400;9.558;2023-02-15T12:37:52;101938.97;;;30.23;31.27
5812;BME280;2932;52.400;9.558;2023-02-15T12:40:27;101929.09;;;31.32;30.05
5812;BME280;2932;52.400;9.558;2023-02-15T12:42:53;101929.94;;;32.14;29.63
5812;BME280;2932;52.400;9.558;2023-02-15T12:47:47;101927.25;;;33.07;29.07
5812;BME280;2932;52.400;9.558;2023-02-15T12:50:32;101930.66;;;30.82;30.77
5812;BME280;2932;52.400;9.558;2023-02-15T12:53:33;101926.50;;;31.98;29.44
5812;BME280;2932;52.400;9.558;2023-02-15T12:56:03;101914.31;;;33.03;28.68
5812;BME280;2932;52.400;9.558;2023-02-15T12:58:33;101918.78;;;30.84;30.15
5812;BME280;2932;52.400;9.558;2023-02-15T13:03:35;101898.41;;;34.61;27.75
5812;BME280;2932;52.400;9.558;2023-02-15T13:06:02;101896.34;;;35.03;27.23
5812;BME280;2932;52.400;9.558;2023-02-15T13:08:34;101896.88;;;36.36;26.59
5812;BME280;2932;52.400;9.558;2023-02-15T13:11:07;101883.19;;;37.45;25.87
5812;BME280;2932;52.400;9.558;2023-02-15T13:13:38;101881.69;;;37.70;25.30
5812;BME280;2932;52.400;9.558;2023-02-15T13:16:13;101874.50;;;37.65;25.38
5812;BME280;2932;52.400;9.558;2023-02-15T13:18:44;101876.41;;;37.89;25.17
5812;BME280;2932;52.400;9.558;2023-02-15T13:21:11;101881.63;;;37.85;25.04
5812;BME280;2932;52.400;9.558;2023-02-15T13:23:37;101875.59;;;36.63;25.87
5812;BME280;2932;52.400;9.558;2023-02-15T13:26:10;101872.69;;;35.08;26.23
5812;BME280;2932;52.400;9.558;2023-02-15T13:28:42;101864.78;;;34.34;27.21
5812;BME280;2932;52.400;9.558;2023-02-15T13:31:13;101864.97;;;33.94;27.59
5812;BME280;2932;52.400;9.558;2023-02-15T13:33:44;101859.66;;;34.20;27.27
5812;BME280;2932;52.400;9.558;2023-02-15T13:41:24;101845.16;;;35.40;26.43
5812;BME280;2932;52.400;9.558;2023-02-15T13:49:12;101837.09;;;35.21;26.70
5812;BME280;2932;52.400;9.558;2023-02-15T13:51:54;101841.03;;;34.66;27.12
5812;BME280;2932;52.400;9.558;2023-02-15T13:57:02;101836.53;;;33.68;28.30
5812;BME280;2932;52.400;9.558;2023-02-15T14:10:37;101835.47;;;31.58;29.69
5812;BME280;2932;52.400;9.558;2023-02-15T14:16:03;101843.09;;;31.01;30.22
5812;BME280;2932;52.400;9.558;2023-02-15T14:18:46;101837.16;;;30.96;30.27
5812;BME280;2932;52.400;9.558;2023-02-15T14:23:55;101832.19;;;30.33;30.49
5812;BME280;2932;52.400;9.558;2023-02-15T14:29:23;101835.13;;;28.58;32.24
5812;BME280;2932;52.400;9.558;2023-02-15T14:31:57;101827.09;;;28.52;32.90
5812;BME280;2932;52.400;9.558;2023-02-15T14:34:29;101827.13;;;28.33;32.80
5812;BME280;2932;52.400;9.558;2023-02-15T14:36:56;101823.72;;;28.21;33.44
5812;BME280;2932;52.400;9.558;2023-02-15T14:39:46;101818.06;;;28.18;33.20
5812;BME280;2932;52.400;9.558;2023-02-15T14:43:16;101823.31;;;28.19;32.89
5812;BME280;2932;52.400;9.558;2023-02-15T14:46:42;101822.44;;;28.42;32.72
5812;BME280;2932;52.400;9.558;2023-02-15T14:48:42;101818.19;;;28.50;32.96
5812;BME280;2932;52.400;9.558;2023-02-15T14:51:10;101817.88;;;28.65;32.66
5812;BME280;2932;52.400;9.558;2023-02-15T14:53:38;101816.91;;;28.71;32.60
5812;BME280;2932;52.400;9.558;2023-02-15T14:58:36;101817.94;;;28.97;32.16
5812;BME280;2932;52.400;9.558;2023-02-15T15:01:09;101821.41;;;29.05;32.25
5812;BME280;2932;52.400;9.558;2023-02-15T15:03:36;101814.88;;;29.20;32.19
5812;BME280;2932;52.400;9.558;2023-02-15T15:06:07;101811.44;;;29.13;32.56
5812;BME280;2932;52.400;9.558;2023-02-15T15:08:36;101810.03;;;29.66;31.84
5812;BME280;2932;52.400;9.558;2023-02-15T15:13:57;101821.50;;;29.50;31.63
5812;BME280;2932;52.400;9.558;2023-02-15T15:18:52;101809.22;;;29.66;31.63
5812;BME280;2932;52.400;9.558;2023-02-15T15:37:57;101810.13;;;26.42;34.50
5812;BME280;2932;52.400;9.558;2023-02-15T15:45:53;101814.16;;;24.14;36.82
5812;BME280;2932;52.400;9.558;2023-02-15T15:51:11;101815.56;;;23.00;38.39
5812;BME280;2932;52.400;9.558;2023-02-15T15:53:40;101817.53;;;22.78;38.98
5812;BME280;2932;52.400;9.558;2023-02-15T15:56:12;101812.66;;;22.57;39.30
5812;BME280;2932;52.400;9.558;2023-02-15T15:58:43;101809.75;;;22.28;39.98
5812;BME280;2932;52.400;9.558;2023-02-15T16:01:10;101808.84;;;22.03;40.28
5812;BME280;2932;52.400;9.558;2023-02-15T16:03:49;101806.50;;;21.47;41.02
5812;BME280;2932;52.400;9.558;2023-02-15T16:06:43;101801.84;;;20.73;41.97
5812;BME280;2932;52.400;9.558;2023-02-15T16:09:26;101797.09;;;20.10;42.91
5812;BME280;2932;52.400;9.558;2023-02-15T16:11:58;101798.72;;;19.51;44.19